Time,TemperatureF,DewpointF,PressureIn,WindDirection,WindDirectionDegrees,WindSpeedMPH,WindSpeedGustMPH,Humidity,HourlyPrecipIn,Conditions,Clouds,dailyrainin,SoftwareType,DateUTC
2013-02-18 00:00:00,15.8,9.9,30.12,SE,136,4.0,4.0,77,0.00,,FEW031,0.00,VWS V14.01,2013-02-18 05:00:00,
2013-02-18 00:01:00,15.9,10.0,30.13,SE,144,0.0,3.0,77,0.00,,FEW031,0.00,VWS V14.01,2013-02-18 05:01:00,
2013-02-18 00:06:00,15.8,9.9,30.13,SE,141,0.0,2.0,77,0.00,,FEW031,0.00,VWS V14.01,2013-02-18 05:06:00,
2013-02-18 00:11:00,15.7,9.8,30.13,SE,141,1.0,3.0,77,0.00,,SCT120,0.00,VWS V14.01,2013-02-18 05:11:00,
2013-02-18 00:16:00,15.6,9.7,30.13,SE,136,4.0,4.0,77,0.00,,SCT120,0.00,VWS V14.01,2013-02-18 05:16:00,
2013-02-18 00:21:00,15.5,9.6,30.12,SE,132,3.0,3.0,77,0.00,,SCT120,0.00,VWS V14.01,2013-02-18 05:21:00,
2013-02-18 00:26:00,15.5,9.6,30.12,SSE,163,3.0,4.0,77,0.00,,SCT120,0.00,VWS V14.01,2013-02-18 05:26:00,
2013-02-18 00:31:00,15.6,9.4,30.12,SSE,163,3.0,5.0,76,0.00,,SCT120,0.00,VWS V14.01,2013-02-18 05:31:00,
2013-02-18 00:36:00,15.8,9.6,30.12,SSE,148,3.0,5.0,76,0.00,,SCT120,0.00,VWS V14.01,2013-02-18 05:36:00,
2013-02-18 00:41:00,15.8,9.6,30.12,SSE,150,2.0,4.0,76,0.00,,SCT120,0.00,VWS V14.01,2013-02-18 05:41:00,
2013-02-18 00:46:00,15.8,9.6,30.12,SSE,162,2.0,4.0,76,0.00,,SCT120,0.00,VWS V14.01,2013-02-18 05:46:00,
2013-02-18 00:51:00,15.7,9.5,30.12,South,180,2.0,4.0,76,0.00,,SCT120,0.00,VWS V14.01,2013-02-18 05:51:00,
2013-02-18 00:56:00,15.6,9.4,30.12,South,175,2.0,3.0,76,0.00,,SCT120,0.00,VWS V14.01,2013-02-18 05:56:00,
2013-02-18 01:01:00,15.7,9.5,30.12,SE,143,3.0,3.0,76,0.00,,SCT120,0.00,VWS V14.01,2013-02-18 06:01:00,
2013-02-18 01:06:00,15.5,9.3,30.12,SE,141,3.0,3.0,76,0.00,,SCT110,0.00,VWS V14.01,2013-02-18 06:06:00,
2013-02-18 01:11:00,15.3,9.1,30.12,SSE,148,2.0,3.0,76,0.00,,SCT110,0.00,VWS V14.01,2013-02-18 06:11:00,
2013-02-18 01:16:00,15.1,9.2,30.11,SE,138,4.0,4.0,77,0.00,,SCT110,0.00,VWS V14.01,2013-02-18 06:16:00,
2013-02-18 01:21:00,15.1,9.2,30.12,SE,135,1.0,3.0,77,0.00,,SCT110,0.00,VWS V14.01,2013-02-18 06:21:00,
2013-02-18 01:26:00,14.9,9.0,30.12,SE,135,4.0,4.0,77,0.00,,SCT110,0.00,VWS V14.01,2013-02-18 06:26:00,
2013-02-18 01:31:00,14.6,8.7,30.12,ESE,123,3.0,4.0,77,0.00,,SCT110,0.00,VWS V14.01,2013-02-18 06:31:00,
2013-02-18 01:36:00,14.3,8.7,30.11,SE,125,3.0,3.0,78,0.00,,SCT110,0.00,VWS V14.01,2013-02-18 06:36:00,
2013-02-18 01:41:00,14.2,8.6,30.11,SE,131,2.0,3.0,78,0.00,,SCT110,0.00,VWS V14.01,2013-02-18 06:41:00,
2013-02-18 01:46:00,14.2,8.6,30.11,SE,129,4.0,4.0,78,0.00,,SCT110,0.00,VWS V14.01,2013-02-18 06:46:00,
2013-02-18 01:51:00,14.2,8.6,30.11,SE,134,2.0,4.0,78,0.00,,SCT110,0.00,VWS V14.01,2013-02-18 06:51:00,
2013-02-18 01:56:00,14.4,8.8,30.11,ESE,119,5.0,5.0,78,0.00,,SCT110,0.00,VWS V14.01,2013-02-18 06:56:00,
2013-02-18 02:02:00,14.7,9.1,30.11,ESE,121,4.0,5.0,78,0.00,,SCT110,0.00,VWS V14.01,2013-02-18 07:02:00,
2013-02-18 02:07:00,15.0,9.4,30.11,SE,134,5.0,5.0,78,0.00,,SCT110,0.00,VWS V14.01,2013-02-18 07:07:00,
2013-02-18 02:12:00,15.4,9.5,30.11,ESE,123,4.0,6.0,77,0.00,,BKN110,0.00,VWS V14.01,2013-02-18 07:12:00,
2013-02-18 02:17:00,15.6,9.7,30.10,ESE,117,4.0,6.0,77,0.00,,BKN110,0.00,VWS V14.01,2013-02-18 07:17:00,
2013-02-18 02:22:00,15.7,9.8,30.11,SE,146,3.0,7.0,77,0.00,,BKN110,0.00,VWS V14.01,2013-02-18 07:22:00,
2013-02-18 02:27:00,15.7,9.5,30.11,South,169,2.0,4.0,76,0.00,,BKN110,0.00,VWS V14.01,2013-02-18 07:27:00,
2013-02-18 02:32:00,15.8,9.6,30.11,ESE,121,2.0,3.0,76,0.00,,BKN110,0.00,VWS V14.01,2013-02-18 07:32:00,
2013-02-18 02:37:00,15.8,9.6,30.10,SE,146,2.0,5.0,76,0.00,,BKN110,0.00,VWS V14.01,2013-02-18 07:37:00,
2013-02-18 02:42:00,15.9,9.7,30.10,SE,134,3.0,5.0,76,0.00,,BKN110,0.00,VWS V14.01,2013-02-18 07:42:00,
2013-02-18 02:47:00,15.9,9.7,30.10,SSE,152,4.0,7.0,76,0.00,,BKN110,0.00,VWS V14.01,2013-02-18 07:47:00,
2013-02-18 02:52:00,15.9,9.7,30.10,SE,125,4.0,7.0,76,0.00,,BKN110,0.00,VWS V14.01,2013-02-18 07:52:00,
2013-02-18 02:57:00,15.9,9.7,30.10,SE,134,3.0,4.0,76,0.00,,BKN110,0.00,VWS V14.01,2013-02-18 07:57:00,
2013-02-18 03:02:00,16.0,9.8,30.09,ESE,123,4.0,6.0,76,0.00,,BKN110,0.00,VWS V14.01,2013-02-18 08:02:00,
2013-02-18 03:07:00,16.1,9.9,30.09,SE,129,4.0,8.0,76,0.00,,OVC100,0.00,VWS V14.01,2013-02-18 08:07:00,
2013-02-18 03:12:00,16.3,10.1,30.09,SE,130,8.0,8.0,76,0.00,,OVC100,0.00,VWS V14.01,2013-02-18 08:12:00,
2013-02-18 03:17:00,16.5,10.3,30.08,SE,133,9.0,9.0,76,0.00,,OVC100,0.00,VWS V14.01,2013-02-18 08:17:00,
2013-02-18 03:22:00,16.6,10.1,30.08,SE,146,3.0,3.0,75,0.00,,OVC100,0.00,VWS V14.01,2013-02-18 08:22:00,
2013-02-18 03:27:00,16.6,10.1,30.08,SE,131,4.0,7.0,75,0.00,,OVC100,0.00,VWS V14.01,2013-02-18 08:27:00,
2013-02-18 03:32:00,16.7,10.2,30.08,SE,144,6.0,8.0,75,0.00,,OVC100,0.00,VWS V14.01,2013-02-18 08:32:00,
2013-02-18 03:37:00,16.7,10.2,30.08,SE,142,7.0,9.0,75,0.00,,OVC100,0.00,VWS V14.01,2013-02-18 08:37:00,
2013-02-18 03:42:00,16.8,10.3,30.08,SE,131,5.0,6.0,75,0.00,,OVC100,0.00,VWS V14.01,2013-02-18 08:42:00,
2013-02-18 03:47:00,17.0,10.5,30.08,SSE,155,5.0,6.0,75,0.00,,OVC100,0.00,VWS V14.01,2013-02-18 08:47:00,
2013-02-18 03:52:00,17.1,10.6,30.08,SSE,152,2.0,6.0,75,0.00,,OVC100,0.00,VWS V14.01,2013-02-18 08:52:00,
2013-02-18 03:57:00,17.2,10.6,30.08,SE,140,4.0,6.0,75,0.00,,OVC100,0.00,VWS V14.01,2013-02-18 08:57:00,
2013-02-18 04:02:00,17.3,10.8,30.07,SE,136,5.0,7.0,75,0.00,,OVC100,0.00,VWS V14.01,2013-02-18 09:02:00,
2013-02-18 04:07:00,17.4,10.9,30.07,SE,142,3.0,4.0,75,0.00,,OVC100,0.00,VWS V14.01,2013-02-18 09:07:00,
2013-02-18 04:12:00,17.5,10.6,30.07,SE,134,6.0,7.0,74,0.00,,OVC100,0.00,VWS V14.01,2013-02-18 09:12:00,
2013-02-18 04:17:00,17.5,10.6,30.06,SE,131,4.0,7.0,74,0.00,,OVC100,0.00,VWS V14.01,2013-02-18 09:17:00,
2013-02-18 04:22:00,17.5,10.9,30.07,South,188,2.0,3.0,75,0.00,,OVC100,0.00,VWS V14.01,2013-02-18 09:22:00,
2013-02-18 04:27:00,17.4,10.9,30.06,SE,133,5.0,7.0,75,0.00,,OVC100,0.00,VWS V14.01,2013-02-18 09:27:00,
2013-02-18 04:32:00,17.4,10.9,30.06,SE,130,3.0,6.0,75,0.00,,OVC100,0.00,VWS V14.01,2013-02-18 09:32:00,
2013-02-18 04:37:00,17.5,10.9,30.05,SE,126,5.0,9.0,75,0.00,,OVC100,0.00,VWS V14.01,2013-02-18 09:37:00,
2013-02-18 04:42:00,17.7,11.1,30.05,SSE,165,6.0,6.0,75,0.00,,OVC100,0.00,VWS V14.01,2013-02-18 09:42:00,
2013-02-18 04:47:00,17.9,11.3,30.05,SE,130,5.0,8.0,75,0.00,,OVC100,0.00,VWS V14.01,2013-02-18 09:47:00,
2013-02-18 04:52:00,18.1,11.2,30.04,SE,144,1.0,6.0,74,0.00,,OVC100,0.00,VWS V14.01,2013-02-18 09:52:00,
2013-02-18 04:57:00,18.1,11.2,30.04,SE,134,4.0,5.0,74,0.00,,OVC100,0.00,VWS V14.01,2013-02-18 09:57:00,
2013-02-18 05:02:00,18.2,11.3,30.04,SSE,166,6.0,7.0,74,0.00,,OVC100,0.00,VWS V14.01,2013-02-18 10:02:00,
2013-02-18 05:07:00,18.2,11.3,30.03,SE,136,4.0,7.0,74,0.00,,OVC100,0.00,VWS V14.01,2013-02-18 10:07:00,
2013-02-18 05:12:00,18.2,11.3,30.03,ESE,116,3.0,7.0,74,0.00,,OVC100,0.00,VWS V14.01,2013-02-18 10:12:00,
2013-02-18 05:17:00,18.2,11.0,30.03,SE,145,4.0,6.0,73,0.00,,OVC100,0.00,VWS V14.01,2013-02-18 10:17:00,
2013-02-18 05:22:00,18.3,11.1,30.02,SE,134,6.0,8.0,73,0.00,,OVC100,0.00,VWS V14.01,2013-02-18 10:22:00,
2013-02-18 05:27:00,18.2,11.0,30.02,SE,138,5.0,7.0,73,0.00,,OVC100,0.00,VWS V14.01,2013-02-18 10:27:00,
2013-02-18 05:32:00,17.7,10.8,30.02,SE,126,6.0,7.0,74,0.00,,OVC100,0.00,VWS V14.01,2013-02-18 10:32:00,
2013-02-18 05:37:00,17.4,10.9,30.01,ESE,123,4.0,4.0,75,0.00,,OVC100,0.00,VWS V14.01,2013-02-18 10:37:00,
2013-02-18 05:43:00,17.3,10.8,30.01,ESE,123,4.0,6.0,75,0.00,,OVC100,0.00,VWS V14.01,2013-02-18 10:43:00,
2013-02-18 05:48:00,17.3,10.8,30.01,ESE,121,5.0,5.0,75,0.00,,OVC100,0.00,VWS V14.01,2013-02-18 10:48:00,
2013-02-18 05:53:00,17.4,10.9,30.00,SE,126,7.0,8.0,75,0.00,,OVC100,0.00,VWS V14.01,2013-02-18 10:53:00,
2013-02-18 05:58:00,17.5,10.9,29.99,SE,134,6.0,8.0,75,0.00,,OVC100,0.00,VWS V14.01,2013-02-18 10:58:00,
2013-02-18 06:03:00,17.4,10.9,30.00,ESE,113,5.0,5.0,75,0.00,,OVC100,0.00,VWS V14.01,2013-02-18 11:03:00,
2013-02-18 06:08:00,17.6,11.0,30.00,SE,138,6.0,7.0,75,0.00,,OVC090,0.00,VWS V14.01,2013-02-18 11:08:00,
2013-02-18 06:13:00,17.8,11.2,29.99,ESE,116,4.0,8.0,75,0.00,,OVC090,0.00,VWS V14.01,2013-02-18 11:13:00,
2013-02-18 06:18:00,17.9,11.0,29.99,ESE,123,7.0,8.0,74,0.00,,OVC090,0.00,VWS V14.01,2013-02-18 11:18:00,
2013-02-18 06:23:00,18.0,11.1,29.99,SE,135,6.0,8.0,74,0.00,,OVC090,0.00,VWS V14.01,2013-02-18 11:23:00,
2013-02-18 06:28:00,17.9,11.0,29.98,SE,138,6.0,8.0,74,0.00,,OVC090,0.00,VWS V14.01,2013-02-18 11:28:00,
2013-02-18 06:33:00,17.9,11.0,29.98,ESE,118,8.0,8.0,74,0.00,,OVC090,0.00,VWS V14.01,2013-02-18 11:33:00,
2013-02-18 06:38:00,17.9,11.0,29.98,SE,146,7.0,7.0,74,0.00,,OVC090,0.00,VWS V14.01,2013-02-18 11:38:00,
2013-02-18 06:43:00,17.9,11.0,29.97,ESE,113,11.0,11.0,74,0.00,,OVC090,0.00,VWS V14.01,2013-02-18 11:43:00,
2013-02-18 06:48:00,17.9,11.3,29.97,SE,125,8.0,8.0,75,0.00,,OVC090,0.00,VWS V14.01,2013-02-18 11:48:00,
2013-02-18 06:53:00,18.0,11.1,29.97,SE,140,4.0,8.0,74,0.00,,OVC090,0.00,VWS V14.01,2013-02-18 11:53:00,
2013-02-18 06:58:00,18.1,11.2,29.96,SE,134,7.0,8.0,74,0.00,,OVC090,0.00,VWS V14.01,2013-02-18 11:58:00,
2013-02-18 07:03:00,18.2,11.3,29.96,SSE,158,5.0,8.0,74,0.00,,OVC090,0.00,VWS V14.01,2013-02-18 12:03:00,
2013-02-18 07:08:00,18.5,11.3,29.95,SE,124,8.0,8.0,73,0.00,,OVC090,0.00,VWS V14.01,2013-02-18 12:08:00,
2013-02-18 07:13:00,18.6,11.4,29.95,SE,139,6.0,10.0,73,0.00,,OVC090,0.00,VWS V14.01,2013-02-18 12:13:00,
2013-02-18 07:18:00,18.8,11.3,29.94,SE,137,7.0,10.0,72,0.00,,OVC090,0.00,VWS V14.01,2013-02-18 12:18:00,
2013-02-18 07:23:00,18.9,11.4,29.94,SE,125,9.0,11.0,72,0.00,,OVC090,0.00,VWS V14.01,2013-02-18 12:23:00,
2013-02-18 07:28:00,18.8,11.3,29.93,ESE,112,7.0,7.0,72,0.00,,OVC090,0.00,VWS V14.01,2013-02-18 12:28:00,
2013-02-18 07:33:00,18.8,11.6,29.93,SE,128,8.0,11.0,73,0.00,,OVC090,0.00,VWS V14.01,2013-02-18 12:33:00,
2013-02-18 07:38:00,18.8,11.6,29.93,SE,126,6.0,7.0,73,0.00,,OVC090,0.00,VWS V14.01,2013-02-18 12:38:00,
2013-02-18 07:43:00,18.9,11.7,29.93,SE,142,4.0,7.0,73,0.00,,OVC090,0.00,VWS V14.01,2013-02-18 12:43:00,
2013-02-18 07:48:00,19.1,11.9,29.93,SE,140,7.0,7.0,73,0.00,,OVC090,0.00,VWS V14.01,2013-02-18 12:48:00,
2013-02-18 07:53:00,19.3,11.8,29.93,SE,136,4.0,7.0,72,0.00,,OVC090,0.00,VWS V14.01,2013-02-18 12:53:00,
2013-02-18 07:58:00,19.4,11.9,29.94,SE,133,5.0,7.0,72,0.00,,OVC090,0.00,VWS V14.01,2013-02-18 12:58:00,
2013-02-18 08:03:00,19.5,12.3,29.93,SE,135,7.0,9.0,73,0.00,,OVC090,0.00,VWS V14.01,2013-02-18 13:03:00,
2013-02-18 08:08:00,19.5,12.3,29.93,ESE,123,7.0,8.0,73,0.00,,OVC080,0.00,VWS V14.01,2013-02-18 13:08:00,
2013-02-18 08:14:00,19.4,12.8,29.92,SE,127,11.0,11.0,75,0.00,,OVC080,0.00,VWS V14.01,2013-02-18 13:14:00,
2013-02-18 08:19:00,19.0,13.9,29.92,SE,136,4.0,10.0,80,0.00,,OVC080,0.00,VWS V14.01,2013-02-18 13:19:00,
2013-02-18 08:24:00,18.7,14.4,29.92,SE,139,4.0,9.0,83,0.00,,OVC080,0.00,VWS V14.01,2013-02-18 13:24:00,
2013-02-18 08:29:00,18.6,14.6,29.92,SE,141,10.0,10.0,84,0.00,,OVC080,0.00,VWS V14.01,2013-02-18 13:29:00,
2013-02-18 08:34:00,18.7,14.9,29.91,SE,135,10.0,10.0,85,0.00,,OVC080,0.00,VWS V14.01,2013-02-18 13:34:00,
2013-02-18 08:39:00,18.9,14.9,29.91,SE,128,10.0,13.0,84,0.00,,,0.00,VWS V14.01,2013-02-18 13:39:00,
2013-02-18 08:44:00,19.1,15.1,29.91,ESE,122,13.0,13.0,84,0.00,,,0.00,VWS V14.01,2013-02-18 13:44:00,
2013-02-18 08:49:00,19.3,15.0,29.90,SE,135,6.0,9.0,83,0.00,,,0.00,VWS V14.01,2013-02-18 13:49:00,
2013-02-18 08:54:00,19.5,15.2,29.90,ESE,121,10.0,13.0,83,0.00,,,0.00,VWS V14.01,2013-02-18 13:54:00,
2013-02-18 08:59:00,19.7,15.4,29.90,South,177,12.0,12.0,83,0.00,,,0.00,VWS V14.01,2013-02-18 13:59:00,
2013-02-18 09:04:00,19.9,15.6,29.91,East,92,8.0,13.0,83,0.00,,,0.00,VWS V14.01,2013-02-18 14:04:00,
2013-02-18 09:09:00,20.0,15.4,29.90,SE,134,6.0,11.0,82,0.00,,,0.00,VWS V14.01,2013-02-18 14:09:00,
2013-02-18 09:14:00,20.3,15.7,29.90,SE,126,12.0,14.0,82,0.00,,,0.00,VWS V14.01,2013-02-18 14:14:00,
2013-02-18 09:19:00,20.5,15.9,29.89,SE,140,10.0,16.0,82,0.00,,,0.00,VWS V14.01,2013-02-18 14:19:00,
2013-02-18 09:24:00,20.7,15.8,29.89,SE,133,10.0,13.0,81,0.00,,,0.00,VWS V14.01,2013-02-18 14:24:00,
2013-02-18 09:29:00,21.0,16.1,29.88,SE,125,11.0,11.0,81,0.00,,,0.00,VWS V14.01,2013-02-18 14:29:00,
2013-02-18 09:34:00,21.3,16.1,29.88,ESE,113,11.0,11.0,80,0.00,,,0.00,VWS V14.01,2013-02-18 14:34:00,
2013-02-18 09:39:00,21.6,16.1,29.88,ESE,111,12.0,12.0,79,0.00,,,0.00,VWS V14.01,2013-02-18 14:39:00,
2013-02-18 09:44:00,21.8,16.0,29.87,SE,134,10.0,13.0,78,0.00,,,0.00,VWS V14.01,2013-02-18 14:44:00,
2013-02-18 09:49:00,22.3,16.2,29.87,SE,136,8.0,13.0,77,0.00,,,0.00,VWS V14.01,2013-02-18 14:49:00,
2013-02-18 09:55:00,22.6,16.5,29.86,SE,136,12.0,15.0,77,0.00,,,0.00,VWS V14.01,2013-02-18 14:55:00,
2013-02-18 10:00:00,22.9,16.2,29.86,ESE,121,10.0,14.0,75,0.00,,,0.00,VWS V14.01,2013-02-18 15:00:00,
2013-02-18 10:05:00,22.9,16.2,29.86,SE,136,8.0,10.0,75,0.00,,,0.00,VWS V14.01,2013-02-18 15:05:00,
2013-02-18 10:10:00,23.1,16.1,29.86,SE,138,4.0,4.0,74,0.00,,BKN110,0.00,VWS V14.01,2013-02-18 15:10:00,
2013-02-18 10:15:00,23.4,16.0,29.86,South,188,9.0,12.0,73,0.00,,BKN110,0.00,VWS V14.01,2013-02-18 15:15:00,
2013-02-18 10:20:00,23.3,15.9,29.86,SE,128,9.0,11.0,73,0.00,,BKN110,0.00,VWS V14.01,2013-02-18 15:20:00,
2013-02-18 10:25:00,23.4,15.7,29.86,ESE,122,7.0,10.0,72,0.00,,BKN110,0.00,VWS V14.01,2013-02-18 15:25:00,
2013-02-18 10:30:00,23.5,15.8,29.85,SE,130,10.0,10.0,72,0.00,,BKN110,0.00,VWS V14.01,2013-02-18 15:30:00,
2013-02-18 10:35:00,23.7,15.4,29.85,ESE,122,14.0,19.0,70,0.00,,BKN110,0.00,VWS V14.01,2013-02-18 15:35:00,
2013-02-18 10:40:00,24.0,15.6,29.84,SE,140,6.0,8.0,70,0.00,,BKN110,0.00,VWS V14.01,2013-02-18 15:40:00,
2013-02-18 10:45:00,24.2,15.5,29.84,SE,132,11.0,16.0,69,0.00,,BKN110,0.00,VWS V14.01,2013-02-18 15:45:00,
2013-02-18 10:51:00,24.5,15.8,29.84,SE,142,10.0,14.0,69,0.00,,BKN110,0.00,VWS V14.01,2013-02-18 15:51:00,
2013-02-18 10:56:00,24.8,15.8,29.84,SE,130,7.0,10.0,68,0.00,,BKN110,0.00,VWS V14.01,2013-02-18 15:56:00,
2013-02-18 11:01:00,25.2,15.4,29.83,SE,136,11.0,14.0,66,0.00,,BKN110,0.00,VWS V14.01,2013-02-18 16:01:00,
2013-02-18 11:06:00,25.4,15.6,29.84,SE,132,5.0,13.0,66,0.00,,BKN110,0.00,VWS V14.01,2013-02-18 16:06:00,
2013-02-18 11:11:00,25.7,15.9,29.84,SSE,152,5.0,11.0,66,0.00,,OVC080,0.00,VWS V14.01,2013-02-18 16:11:00,
2013-02-18 11:16:00,25.9,16.1,29.84,SSW,202,5.0,13.0,66,0.00,,OVC080,0.00,VWS V14.01,2013-02-18 16:16:00,
2013-02-18 11:21:00,26.2,16.1,29.83,SSE,164,10.0,13.0,65,0.00,,OVC080,0.00,VWS V14.01,2013-02-18 16:21:00,
2013-02-18 11:26:00,26.4,16.2,29.83,SSE,161,6.0,14.0,65,0.00,,OVC080,0.00,VWS V14.01,2013-02-18 16:26:00,
2013-02-18 11:31:00,26.6,16.1,29.82,SE,126,6.0,10.0,64,0.00,,OVC080,0.00,VWS V14.01,2013-02-18 16:31:00,
2013-02-18 11:36:00,27.0,16.5,29.82,SE,142,10.0,12.0,64,0.00,,OVC080,0.00,VWS V14.01,2013-02-18 16:36:00,
2013-02-18 11:41:00,27.3,16.8,29.83,SE,128,3.0,9.0,64,0.00,,OVC080,0.00,VWS V14.01,2013-02-18 16:41:00,
2013-02-18 11:46:00,27.6,16.7,29.82,SE,140,3.0,8.0,63,0.00,,OVC080,0.00,VWS V14.01,2013-02-18 16:46:00,
2013-02-18 11:51:00,28.0,16.7,29.82,South,170,7.0,12.0,62,0.00,,OVC080,0.00,VWS V14.01,2013-02-18 16:51:00,
2013-02-18 11:56:00,28.5,17.1,29.82,SE,133,3.0,4.0,62,0.00,,OVC080,0.00,VWS V14.01,2013-02-18 16:56:00,
2013-02-18 12:01:00,28.9,17.2,29.81,SE,128,7.0,10.0,61,0.00,,OVC080,0.00,VWS V14.01,2013-02-18 17:01:00,
2013-02-18 12:06:00,29.0,17.2,29.81,SE,129,7.0,7.0,61,0.00,,OVC080,0.00,VWS V14.01,2013-02-18 17:06:00,
2013-02-18 12:11:00,29.5,17.7,29.81,SW,223,4.0,9.0,61,0.00,,BKN075,0.00,VWS V14.01,2013-02-18 17:11:00,
2013-02-18 12:16:00,30.1,17.9,29.80,SE,141,6.0,8.0,60,0.00,,BKN075,0.00,VWS V14.01,2013-02-18 17:16:00,
2013-02-18 12:21:00,30.2,18.0,29.80,SE,134,11.0,12.0,60,0.00,,BKN075,0.00,VWS V14.01,2013-02-18 17:21:00,
2013-02-18 12:26:00,30.4,18.2,29.80,South,181,8.0,10.0,60,0.00,,BKN075,0.00,VWS V14.01,2013-02-18 17:26:00,
2013-02-18 12:31:00,30.5,18.7,29.80,SE,132,7.0,7.0,61,0.00,,BKN075,0.00,VWS V14.01,2013-02-18 17:31:00,
2013-02-18 12:36:00,30.7,18.5,29.79,ESE,123,3.0,8.0,60,0.00,,BKN075,0.00,VWS V14.01,2013-02-18 17:36:00,
2013-02-18 12:41:00,30.9,18.7,29.78,SSW,195,11.0,13.0,60,0.00,,BKN075,0.00,VWS V14.01,2013-02-18 17:41:00,
2013-02-18 12:46:00,31.1,18.9,29.78,SW,229,5.0,15.0,60,0.00,,BKN075,0.00,VWS V14.01,2013-02-18 17:46:00,
2013-02-18 12:51:00,31.3,19.0,29.78,SSE,157,7.0,9.0,60,0.00,,BKN075,0.00,VWS V14.01,2013-02-18 17:51:00,
2013-02-18 12:57:00,31.2,19.0,29.77,SE,130,6.0,6.0,60,0.00,,BKN075,0.00,VWS V14.01,2013-02-18 17:57:00,
2013-02-18 13:02:00,31.2,19.0,29.77,SSE,152,4.0,11.0,60,0.00,,BKN075,0.00,VWS V14.01,2013-02-18 18:02:00,
2013-02-18 13:07:00,31.5,19.6,29.76,ESE,117,8.0,11.0,61,0.00,,BKN075,0.00,VWS V14.01,2013-02-18 18:07:00,
2013-02-18 13:12:00,31.9,19.6,29.76,SE,134,8.0,14.0,60,0.00,,CLR,0.00,VWS V14.01,2013-02-18 18:12:00,
2013-02-18 13:17:00,32.0,19.7,29.75,SE,136,12.0,13.0,60,0.00,,CLR,0.00,VWS V14.01,2013-02-18 18:17:00,
2013-02-18 13:22:00,32.0,19.7,29.75,SE,133,8.0,11.0,60,0.00,,CLR,0.00,VWS V14.01,2013-02-18 18:22:00,
2013-02-18 13:27:00,32.6,20.3,29.75,SE,130,10.0,12.0,60,0.00,,CLR,0.00,VWS V14.01,2013-02-18 18:27:00,
2013-02-18 13:32:00,32.5,19.8,29.75,SSE,155,5.0,16.0,59,0.00,,CLR,0.00,VWS V14.01,2013-02-18 18:32:00,
2013-02-18 13:37:00,33.0,20.6,29.74,SE,130,12.0,12.0,60,0.00,,CLR,0.00,VWS V14.01,2013-02-18 18:37:00,
2013-02-18 13:42:00,33.3,20.5,29.74,SE,144,9.0,12.0,59,0.00,,CLR,0.00,VWS V14.01,2013-02-18 18:42:00,
2013-02-18 13:47:00,33.2,20.4,29.74,SW,234,7.0,13.0,59,0.00,,CLR,0.00,VWS V14.01,2013-02-18 18:47:00,
2013-02-18 13:52:00,33.4,21.0,29.74,SE,128,9.0,9.0,60,0.00,,CLR,0.00,VWS V14.01,2013-02-18 18:52:00,
2013-02-18 13:57:00,33.3,20.9,29.74,SE,126,10.0,12.0,60,0.00,,CLR,0.00,VWS V14.01,2013-02-18 18:57:00,
2013-02-18 14:02:00,33.6,21.2,29.73,SSW,192,8.0,15.0,60,0.00,,CLR,0.00,VWS V14.01,2013-02-18 19:02:00,
2013-02-18 14:07:00,33.7,20.9,29.73,SSE,161,7.0,10.0,59,0.00,,CLR,0.00,VWS V14.01,2013-02-18 19:07:00,
2013-02-18 14:12:00,34.3,21.5,29.73,SE,136,11.0,12.0,59,0.00,,CLR,0.00,VWS V14.01,2013-02-18 19:12:00,
2013-02-18 14:17:00,34.3,21.5,29.72,SE,125,11.0,12.0,59,0.01,,CLR,0.01,VWS V14.01,2013-02-18 19:17:00,
2013-02-18 14:22:00,34.2,21.4,29.71,North,350,4.0,8.0,59,0.01,,CLR,0.01,VWS V14.01,2013-02-18 19:22:00,
2013-02-18 14:27:00,34.3,21.5,29.71,South,175,6.0,9.0,59,0.01,,CLR,0.01,VWS V14.01,2013-02-18 19:27:00,
2013-02-18 14:32:00,34.3,21.9,29.71,SSE,157,4.0,10.0,60,0.01,,CLR,0.01,VWS V14.01,2013-02-18 19:32:00,
2013-02-18 14:37:00,34.9,21.6,29.70,SE,144,13.0,16.0,58,0.01,,CLR,0.01,VWS V14.01,2013-02-18 19:37:00,
2013-02-18 14:42:00,34.9,22.0,29.70,ESE,117,10.0,12.0,59,0.01,,CLR,0.01,VWS V14.01,2013-02-18 19:42:00,
2013-02-18 14:48:00,35.0,22.1,29.70,SE,140,8.0,8.0,59,0.01,,CLR,0.01,VWS V14.01,2013-02-18 19:48:00,
2013-02-18 14:53:00,34.8,22.0,29.69,SE,126,5.0,9.0,59,0.01,,CLR,0.01,VWS V14.01,2013-02-18 19:53:00,
2013-02-18 14:58:00,35.0,22.1,29.69,South,180,5.0,8.0,59,0.01,,CLR,0.01,VWS V14.01,2013-02-18 19:58:00,
2013-02-18 15:03:00,34.8,22.0,29.69,SE,130,6.0,8.0,59,0.01,,CLR,0.01,VWS V14.01,2013-02-18 20:03:00,
2013-02-18 15:08:00,35.2,22.3,29.69,SE,143,13.0,13.0,59,0.01,,CLR,0.01,VWS V14.01,2013-02-18 20:08:00,
2013-02-18 15:13:00,35.1,22.2,29.68,SE,139,6.0,7.0,59,0.01,,CLR,0.01,VWS V14.01,2013-02-18 20:13:00,
2013-02-18 15:18:00,35.1,22.2,29.69,SSE,161,5.0,8.0,59,0.01,,CLR,0.01,VWS V14.01,2013-02-18 20:18:00,
2013-02-18 15:23:00,35.2,22.7,29.68,SE,136,11.0,11.0,60,0.01,,CLR,0.01,VWS V14.01,2013-02-18 20:23:00,
2013-02-18 15:28:00,35.0,22.5,29.68,SE,130,5.0,11.0,60,0.01,,CLR,0.01,VWS V14.01,2013-02-18 20:28:00,
2013-02-18 15:33:00,34.9,22.4,29.68,ESE,121,5.0,12.0,60,0.00,,CLR,0.01,VWS V14.01,2013-02-18 20:33:00,
2013-02-18 15:38:00,34.9,22.4,29.68,ESE,120,10.0,14.0,60,0.00,,CLR,0.01,VWS V14.01,2013-02-18 20:38:00,
2013-02-18 15:43:00,35.0,22.5,29.67,SE,135,6.0,12.0,60,0.00,,CLR,0.01,VWS V14.01,2013-02-18 20:43:00,
2013-02-18 15:48:00,35.0,22.5,29.67,SE,131,8.0,11.0,60,0.00,,CLR,0.01,VWS V14.01,2013-02-18 20:48:00,
2013-02-18 15:53:00,35.2,22.7,29.67,SE,126,7.0,11.0,60,0.00,,CLR,0.01,VWS V14.01,2013-02-18 20:53:00,
2013-02-18 15:58:00,35.2,22.7,29.67,ESE,113,8.0,11.0,60,0.00,,CLR,0.01,VWS V14.01,2013-02-18 20:58:00,
2013-02-18 16:03:00,35.3,23.2,29.67,SE,132,5.0,9.0,61,0.00,,CLR,0.01,VWS V14.01,2013-02-18 21:03:00,
2013-02-18 16:08:00,35.3,22.8,29.67,SE,128,12.0,15.0,60,0.00,,CLR,0.01,VWS V14.01,2013-02-18 21:08:00,
2013-02-18 16:13:00,35.3,23.2,29.67,SE,133,6.0,10.0,61,0.00,,CLR,0.01,VWS V14.01,2013-02-18 21:13:00,
2013-02-18 16:18:00,35.4,23.3,29.66,SE,141,8.0,10.0,61,0.00,,CLR,0.01,VWS V14.01,2013-02-18 21:18:00,
2013-02-18 16:23:00,35.3,23.2,29.66,ESE,120,7.0,8.0,61,0.00,,CLR,0.01,VWS V14.01,2013-02-18 21:23:00,
2013-02-18 16:28:00,35.3,23.2,29.66,SE,143,10.0,12.0,61,0.00,,CLR,0.01,VWS V14.01,2013-02-18 21:28:00,
2013-02-18 16:33:00,35.2,23.1,29.66,SE,130,4.0,7.0,61,0.00,,CLR,0.01,VWS V14.01,2013-02-18 21:33:00,
2013-02-18 16:38:00,35.3,23.2,29.66,ESE,123,9.0,14.0,61,0.00,,CLR,0.01,VWS V14.01,2013-02-18 21:38:00,
2013-02-18 16:44:00,35.3,23.6,29.66,SE,136,3.0,6.0,62,0.00,,CLR,0.01,VWS V14.01,2013-02-18 21:44:00,
2013-02-18 16:49:00,35.3,23.6,29.66,SE,136,5.0,10.0,62,0.00,,CLR,0.01,VWS V14.01,2013-02-18 21:49:00,
2013-02-18 16:54:00,35.3,23.6,29.66,SE,142,4.0,8.0,62,0.00,,CLR,0.01,VWS V14.01,2013-02-18 21:54:00,
2013-02-18 16:59:00,35.4,23.7,29.66,SE,134,4.0,8.0,62,0.00,,CLR,0.01,VWS V14.01,2013-02-18 21:59:00,
2013-02-18 17:04:00,35.5,23.8,29.66,SE,132,4.0,9.0,62,0.00,,CLR,0.01,VWS V14.01,2013-02-18 22:04:00,
2013-02-18 17:09:00,35.4,24.1,29.66,SE,138,12.0,13.0,63,0.00,,CLR,0.01,VWS V14.01,2013-02-18 22:09:00,
2013-02-18 17:14:00,35.5,23.8,29.65,SE,142,8.0,12.0,62,0.00,,CLR,0.01,VWS V14.01,2013-02-18 22:14:00,
2013-02-18 17:19:00,35.3,24.0,29.66,SE,144,10.0,10.0,63,0.00,,CLR,0.01,VWS V14.01,2013-02-18 22:19:00,
2013-02-18 17:24:00,35.2,23.5,29.65,SE,128,4.0,9.0,62,0.00,,CLR,0.01,VWS V14.01,2013-02-18 22:24:00,
2013-02-18 17:29:00,35.1,23.8,29.65,SE,128,5.0,9.0,63,0.00,,CLR,0.01,VWS V14.01,2013-02-18 22:29:00,
2013-02-18 17:34:00,35.0,23.7,29.65,ESE,123,8.0,8.0,63,0.00,,CLR,0.01,VWS V14.01,2013-02-18 22:34:00,
2013-02-18 17:39:00,35.0,23.7,29.65,ESE,117,8.0,9.0,63,0.00,,CLR,0.01,VWS V14.01,2013-02-18 22:39:00,
2013-02-18 17:44:00,35.0,23.7,29.65,SE,140,4.0,8.0,63,0.00,,CLR,0.01,VWS V14.01,2013-02-18 22:44:00,
2013-02-18 17:49:00,34.9,24.0,29.65,SE,128,9.0,13.0,64,0.00,,CLR,0.01,VWS V14.01,2013-02-18 22:49:00,
2013-02-18 17:54:00,34.9,24.0,29.65,SE,128,7.0,9.0,64,0.00,,CLR,0.01,VWS V14.01,2013-02-18 22:54:00,
2013-02-18 17:59:00,35.0,24.1,29.65,SE,139,9.0,9.0,64,0.00,,CLR,0.01,VWS V14.01,2013-02-18 22:59:00,
2013-02-18 18:04:00,35.0,24.1,29.64,SSE,168,8.0,11.0,64,0.00,,CLR,0.01,VWS V14.01,2013-02-18 23:04:00,
2013-02-18 18:09:00,35.0,24.4,29.64,SSE,150,5.0,8.0,65,0.00,,CLR,0.01,VWS V14.01,2013-02-18 23:09:00,
2013-02-18 18:14:00,35.0,24.1,29.64,SE,124,4.0,10.0,64,0.00,,CLR,0.01,VWS V14.01,2013-02-18 23:14:00,
2013-02-18 18:19:00,35.0,24.1,29.64,SE,146,6.0,14.0,64,0.00,,CLR,0.01,VWS V14.01,2013-02-18 23:19:00,
2013-02-18 18:24:00,35.1,24.5,29.64,ESE,123,9.0,9.0,65,0.00,,CLR,0.01,VWS V14.01,2013-02-18 23:24:00,
2013-02-18 18:29:00,35.2,24.6,29.64,SSE,150,7.0,7.0,65,0.00,,CLR,0.01,VWS V14.01,2013-02-18 23:29:00,
2013-02-18 18:34:00,35.2,24.3,29.63,ESE,119,15.0,15.0,64,0.00,,CLR,0.01,VWS V14.01,2013-02-18 23:34:00,
2013-02-18 18:39:00,35.3,24.4,29.63,East,94,9.0,10.0,64,0.00,,SCT039,0.01,VWS V14.01,2013-02-18 23:39:00,
2013-02-18 18:44:00,35.2,24.6,29.63,ESE,121,10.0,13.0,65,0.00,,SCT039,0.01,VWS V14.01,2013-02-18 23:44:00,
2013-02-18 18:49:00,35.3,24.4,29.63,SE,135,10.0,12.0,64,0.00,,SCT039,0.01,VWS V14.01,2013-02-18 23:49:00,
2013-02-18 18:54:00,35.3,24.7,29.62,SE,135,9.0,11.0,65,0.00,,SCT039,0.01,VWS V14.01,2013-02-18 23:54:00,
2013-02-18 18:59:00,35.3,24.7,29.62,SE,137,12.0,13.0,65,0.00,,SCT039,0.01,VWS V14.01,2013-02-18 23:59:00,
2013-02-18 19:05:00,35.3,24.7,29.61,SE,124,10.0,15.0,65,0.00,,SCT039,0.01,VWS V14.01,2013-02-19 00:05:00,
2013-02-18 19:10:00,35.3,24.7,29.61,SE,132,10.0,16.0,65,0.00,,OVC039,0.01,VWS V14.01,2013-02-19 00:10:00,
2013-02-18 19:15:00,35.2,24.6,29.61,ESE,115,10.0,14.0,65,0.00,,OVC039,0.01,VWS V14.01,2013-02-19 00:15:00,
2013-02-18 19:20:00,35.2,24.6,29.61,SE,137,7.0,13.0,65,0.00,,OVC039,0.01,VWS V14.01,2013-02-19 00:20:00,
2013-02-18 19:25:00,35.2,24.6,29.60,ESE,120,17.0,22.0,65,0.00,,OVC039,0.01,VWS V14.01,2013-02-19 00:25:00,
2013-02-18 19:30:00,35.2,24.6,29.60,ESE,112,9.0,18.0,65,0.00,,OVC039,0.01,VWS V14.01,2013-02-19 00:30:00,
2013-02-18 19:35:00,35.2,25.0,29.59,ESE,119,10.0,14.0,66,0.00,,OVC039,0.01,VWS V14.01,2013-02-19 00:35:00,
2013-02-18 19:40:00,35.1,24.9,29.59,ESE,115,18.0,18.0,66,0.00,,OVC039,0.01,VWS V14.01,2013-02-19 00:40:00,
2013-02-18 19:45:00,35.1,25.3,29.59,SE,135,9.0,9.0,67,0.00,,OVC039,0.01,VWS V14.01,2013-02-19 00:45:00,
2013-02-18 19:50:00,34.9,25.1,29.59,SE,137,5.0,9.0,67,0.00,,OVC039,0.01,VWS V14.01,2013-02-19 00:50:00,
2013-02-18 19:55:00,35.0,25.5,29.58,SE,137,10.0,14.0,68,0.00,,OVC039,0.01,VWS V14.01,2013-02-19 00:55:00,
2013-02-18 20:00:00,34.9,25.1,29.58,ESE,117,7.0,11.0,67,0.00,,OVC039,0.01,VWS V14.01,2013-02-19 01:00:00,
2013-02-18 20:05:00,34.8,25.3,29.58,SE,146,7.0,10.0,68,0.00,,OVC039,0.01,VWS V14.01,2013-02-19 01:05:00,
2013-02-18 20:11:00,34.8,25.3,29.58,SE,138,6.0,10.0,68,0.00,,OVC035,0.01,VWS V14.01,2013-02-19 01:11:00,
2013-02-18 20:16:00,34.8,25.3,29.57,SE,129,9.0,12.0,68,0.00,,OVC035,0.01,VWS V14.01,2013-02-19 01:16:00,
2013-02-18 20:21:00,34.8,25.7,29.57,SE,136,5.0,10.0,69,0.00,,OVC035,0.01,VWS V14.01,2013-02-19 01:21:00,
2013-02-18 20:26:00,34.8,25.3,29.57,ESE,118,10.0,12.0,68,0.00,,OVC035,0.01,VWS V14.01,2013-02-19 01:26:00,
2013-02-18 20:31:00,34.8,25.7,29.56,SSE,161,8.0,14.0,69,0.00,,OVC035,0.01,VWS V14.01,2013-02-19 01:31:00,
2013-02-18 20:36:00,34.8,25.7,29.57,SE,133,13.0,14.0,69,0.00,,OVC035,0.01,VWS V14.01,2013-02-19 01:36:00,
2013-02-18 20:41:00,34.8,25.7,29.56,SE,130,10.0,15.0,69,0.00,,OVC035,0.01,VWS V14.01,2013-02-19 01:41:00,
2013-02-18 20:46:00,34.8,26.0,29.56,SE,140,13.0,14.0,70,0.00,,OVC035,0.01,VWS V14.01,2013-02-19 01:46:00,
2013-02-18 20:51:00,35.0,26.2,29.56,SE,133,5.0,12.0,70,0.00,,OVC035,0.01,VWS V14.01,2013-02-19 01:51:00,
2013-02-18 20:56:00,35.0,26.6,29.55,SE,135,14.0,16.0,71,0.00,,OVC029,0.01,VWS V14.01,2013-02-19 01:56:00,
2013-02-18 21:01:00,34.9,26.8,29.55,South,178,9.0,16.0,72,0.00,,OVC029,0.01,VWS V14.01,2013-02-19 02:01:00,
2013-02-18 21:06:00,34.8,27.0,29.54,SE,144,9.0,13.0,73,0.00,,OVC029,0.01,VWS V14.01,2013-02-19 02:06:00,
2013-02-18 21:11:00,34.7,27.6,29.54,SE,140,10.0,16.0,75,0.00,,OVC027,0.01,VWS V14.01,2013-02-19 02:11:00,
2013-02-18 21:16:00,34.7,27.9,29.54,SE,140,10.0,14.0,76,0.00,,OVC027,0.01,VWS V14.01,2013-02-19 02:16:00,
2013-02-18 21:21:00,34.5,28.4,29.54,SE,136,13.0,16.0,78,0.00,,OVC027,0.01,VWS V14.01,2013-02-19 02:21:00,
2013-02-18 21:26:00,34.2,28.7,29.54,SE,128,9.0,11.0,80,0.00,,OVC027,0.01,VWS V14.01,2013-02-19 02:26:00,
2013-02-18 21:31:00,34.1,29.2,29.53,SE,129,5.0,13.0,82,0.00,,OVC027,0.01,VWS V14.01,2013-02-19 02:31:00,
2013-02-18 21:36:00,33.9,29.6,29.53,SSE,148,8.0,12.0,84,0.00,,OVC027,0.01,VWS V14.01,2013-02-19 02:36:00,
2013-02-18 21:41:00,33.9,29.6,29.53,SE,127,6.0,14.0,84,0.00,,OVC027,0.01,VWS V14.01,2013-02-19 02:41:00,
2013-02-18 21:46:00,33.9,29.9,29.53,SE,130,6.0,12.0,85,0.01,,OVC027,0.02,VWS V14.01,2013-02-19 02:46:00,
2013-02-18 21:51:00,33.8,30.1,29.53,SSE,162,10.0,12.0,86,0.01,,OVC027,0.02,VWS V14.01,2013-02-19 02:51:00,
2013-02-18 21:56:00,33.7,30.2,29.52,SSE,165,3.0,9.0,87,0.01,,OVC027,0.02,VWS V14.01,2013-02-19 02:56:00,
2013-02-18 22:02:00,33.6,30.4,29.52,SE,133,7.0,11.0,88,0.02,,OVC027,0.03,VWS V14.01,2013-02-19 03:02:00,
2013-02-18 22:07:00,33.5,30.6,29.52,SE,130,9.0,9.0,89,0.03,,OVC027,0.04,VWS V14.01,2013-02-19 03:07:00,
2013-02-18 22:12:00,33.5,30.6,29.51,SE,133,4.0,10.0,89,0.03,,-RA,0.04,VWS V14.01,2013-02-19 03:12:00,
2013-02-18 22:17:00,33.5,30.9,29.51,SE,124,8.0,12.0,90,0.04,,-RA,0.05,VWS V14.01,2013-02-19 03:17:00,
2013-02-18 22:22:00,33.7,31.1,29.51,South,190,6.0,13.0,90,0.04,,-RA,0.05,VWS V14.01,2013-02-19 03:22:00,
2013-02-18 22:27:00,33.6,31.0,29.51,East,87,7.0,14.0,90,0.04,,-RA,0.05,VWS V14.01,2013-02-19 03:27:00,
2013-02-18 22:32:00,33.5,30.9,29.50,ESE,113,7.0,8.0,90,0.05,,-RA,0.06,VWS V14.01,2013-02-19 03:32:00,
2013-02-18 22:37:00,33.4,31.1,29.50,SW,234,6.0,8.0,91,0.05,,-RA,0.06,VWS V14.01,2013-02-19 03:37:00,
2013-02-18 22:42:00,33.3,31.2,29.50,SE,138,9.0,12.0,92,0.05,,-RA,0.06,VWS V14.01,2013-02-19 03:42:00,
2013-02-18 22:47:00,33.3,31.2,29.50,ESE,122,9.0,12.0,92,0.06,,-RA,0.07,VWS V14.01,2013-02-19 03:47:00,
2013-02-18 22:52:00,33.3,31.2,29.49,SE,130,8.0,10.0,92,0.06,,-RA,0.07,VWS V14.01,2013-02-19 03:52:00,
2013-02-18 22:58:00,33.3,31.2,29.49,SE,143,3.0,11.0,92,0.06,,-RA,0.07,VWS V14.01,2013-02-19 03:58:00,
2013-02-18 23:03:00,33.3,31.2,29.49,ESE,117,5.0,7.0,92,0.05,,-RA,0.08,VWS V14.01,2013-02-19 04:03:00,
2013-02-18 23:08:00,33.3,31.2,29.49,ESE,106,8.0,9.0,92,0.06,,-RA,0.09,VWS V14.01,2013-02-19 04:08:00,
2013-02-18 23:13:00,33.3,31.5,29.48,SSE,156,8.0,11.0,93,0.06,,-RA,0.09,VWS V14.01,2013-02-19 04:13:00,
2013-02-18 23:18:00,33.3,31.5,29.48,SE,138,4.0,9.0,93,0.07,,-RA,0.10,VWS V14.01,2013-02-19 04:18:00,
2013-02-18 23:23:00,33.3,31.5,29.48,ESE,119,7.0,11.0,93,0.07,,-RA,0.10,VWS V14.01,2013-02-19 04:23:00,
2013-02-18 23:28:00,33.3,31.5,29.47,SE,130,9.0,13.0,93,0.08,,-RA,0.11,VWS V14.01,2013-02-19 04:28:00,
2013-02-18 23:33:00,33.3,31.5,29.47,SE,138,8.0,14.0,93,0.05,,-RA,0.11,VWS V14.01,2013-02-19 04:33:00,
2013-02-18 23:38:00,33.3,31.5,29.47,SSE,152,8.0,9.0,93,0.05,,,0.11,VWS V14.01,2013-02-19 04:38:00,
2013-02-18 23:43:00,33.3,31.5,29.46,SE,128,7.0,11.0,93,0.05,,,0.11,VWS V14.01,2013-02-19 04:43:00,
2013-02-18 23:49:00,33.2,31.4,29.45,SE,138,7.0,9.0,93,0.06,,,0.12,VWS V14.01,2013-02-19 04:49:00,
2013-02-18 23:54:00,33.2,31.7,29.45,SE,133,9.0,9.0,94,0.06,,,0.12,VWS V14.01,2013-02-19 04:54:00,
2013-02-18 23:59:00,33.1,31.6,29.44,ESE,118,8.0,12.0,94,0.07,,,0.13,VWS V14.01,2013-02-19 04:59:00,